Gunnedah, Australia

6:40 PM AEST on May 23, 2017 (GMT +1000)
Bengalala | | Change Station

Elev 880 ft 30.88 °S, 150.25 °E | Updated 2 minutes ago

Clear
Clear
58.8 °F
Feels Like 58.8 °F
N
5.0
Wind Variable Wind from ENE
Gusts 11.0 mph

Today
High -- | Low -- °F
--% Chance of Precip.
Yesterday
High -- | Low -- °F
Precip. -- in
Pressure 30.12 in
Visibility 6.2 miles
Clouds Scattered Clouds 9100 ft
Mostly Cloudy 11000 ft
Overcast 12500 ft
Dew Point 56 °F
Humidity 91%
Rainfall 0.23 in
Snow Depth Not available.
6:43 AM 5:07 PM
Waning Crescent, 9% visible
METAR YSTW 230800Z AUTO 02011KT 9999 // SCT091 BKN110 OVC125 14/12 Q1020
Pressure 30.12 in
Visibility 6.2 miles
Clouds Scattered Clouds 9100 ft
Mostly Cloudy 11000 ft
Overcast 12500 ft
Dew Point 56 °F
Humidity 91%
Rainfall 0.23 in
Snow Depth Not available.
6:43 AM 5:07 PM
Waning Crescent, 9% visible
METAR YSTW 230800Z AUTO 02011KT 9999 // SCT091 BKN110 OVC125 14/12 Q1020

Get Severe Weather Alerts

Thanks for signing up!

Be on the lookout for a verification email in your inbox.

You'll start receiving the daily forecast at 6 AM.

×

10-Day Weather Forecast

×

Almanac

Astronomy

May. 23, 2017 Rise Set
Actual Time
Civil Twilight
Nautical Twilight
Astronomical Twilight
Moon
Length of Visible Light
Length of Day
Tomorrow will be .
, % of the Moon is Illuminated

Today's Extremes

Country Highs Country Lows

Community

WunderPhotos

Category 6

Welcome to Category 6. This is the collective home for Weather Underground's featured writeups by Dr. Jeff Masters (right), Bob Henson (left), Chris Burt, and other regular contributors.

Nearby

Air Quality

  Air Quality AQ Index Pollutant
Not available.

Snow Depth

Station Depth Elevation

Earthquake Activity

City Distance Mag. Time & Date
Minimum magnitude displayed is 2.5.

Coastal Water Temperatures

Place Temperature

Stations

Nearby Weather Stations

Station Location Temp. Windchill Dew Point Humidity Wind Precip. Elev Updated Type